Main page
METAR-TAF:

METAR-TAF

Airports :

Gillette–Campbell County Airport

Gillette, Wyoming, United States

latitude: 44-20-22N, longitude: 105-32-31W, elevation: 4362 ft

Current weather observation

The report was made 25 minutes ago, at 13:53 UTC
Wind 16 mph from the South with gusts up to 26 mph
Temperature 37°F
Humidity 52%
Pressure 30.16 in. Hg
Visibility: 10 miles
Clear sky

METAR: KGCC 211353Z AUTO 18014G23KT 10SM CLR 03/M06 A3016 RMK AO2 SLP229 T00331056

Time: 08:18 (14:18 UTC)

Forecast

The report was made 2 hours and 58 minutes ago, at 11:20 UTC
Forecast valid from 21 at 12 UTC to 22 at 12 UTC
Wind 14 mph from the South/Southeast
Visibility: 6 miles
Clear sky
From 21 at 1600 UTC
Wind 17 mph from the Southwest with gusts up to 29 mph
Visibility: 6 miles
Scattered clouds at a height of 10000 ft
From 22 at 0600 UTC
Wind 17 mph from the West
Visibility: 6 miles
Overcast at a height of 25000 ft

TAF: KGCC 211120Z 2112/2212 16012KT P6SM SKC FM211600 22015G25KT P6SM SCT100 FM220600 26015KT P6SM OVC250

Weather observations and forecasts of more than 4000 airports (METAR and TAF reports).

The available stations are represented by yellow and red dots on the map.

Hover mouse over dot to see the name of the station.

Then click to see weather observations and forecasts.

To change the map : click on the green buttons with a black cross to zoom in, on the green button with a dash to zoom out, or on the green arrows for adjacent maps.


METAR-TAF: